Time;durP1;ratioP1;P1;durP2;ratioP2;P2;SDS_P1;SDS_P2;PMS_P1;PMS_P2;Temp;Humidity;BMP_temperature;BMP_pressure;BME280_temperature;BME280_humidity;BME280_pressure;Samples;Min_cycle;Max_cycle;Signal;HPM_P1;HPM_P2
2022/06/10 00:01:23;;;;;;;1.60;1.20;;;22.30;46.90;;;20.44;51.37;101459.75;12238368;19;20010;-77
2022/06/10 00:05:29;;;;;;;1.00;1.00;;;22.40;46.90;;;20.28;51.45;101441.66;12238979;19;20095;-77
2022/06/10 00:09:31;;;;;;;1.08;0.90;;;22.20;47.00;;;20.30;51.28;101463.56;12236909;19;20070;-77
2022/06/10 00:13:38;;;;;;;1.17;1.02;;;22.20;46.90;;;20.38;51.37;101476.16;12239214;19;20014;-78
2022/06/10 00:17:41;;;;;;;1.20;1.10;;;22.20;46.80;;;20.39;51.56;101482.31;12241064;19;20017;-78
2022/06/10 00:21:42;;;;;;;1.52;0.88;;;22.30;47.00;;;20.26;51.17;101470.09;12251355;19;20025;-78
2022/06/10 00:25:45;;;;;;;1.25;0.98;;;22.20;47.00;;;20.07;51.27;101435.50;12244102;19;20013;-77
2022/06/10 00:29:48;;;;;;;1.60;1.02;;;22.30;47.00;;;20.26;51.23;101469.28;12251261;19;20022;-78
2022/06/10 00:33:50;;;;;;;0.82;0.82;;;22.10;46.90;;;20.22;51.57;101471.31;12247390;19;20014;-78
2022/06/10 00:37:52;;;;;;;1.13;1.02;;;22.10;47.00;;;20.22;51.15;101481.94;12245387;19;20011;-78
2022/06/10 00:41:54;;;;;;;1.63;1.10;;;22.10;47.00;;;20.27;51.18;101502.78;12249077;19;20429;-78
2022/06/10 00:46:28;;;;;;;1.10;1.00;;;22.10;47.10;;;20.26;51.39;101509.88;12244028;19;20024;-78
2022/06/10 00:50:31;;;;;;;0.85;0.85;;;22.00;47.10;;;20.17;51.59;101508.03;12248493;19;20025;-78
2022/06/10 00:54:42;;;;;;;1.58;0.95;;;22.00;47.10;;;20.10;51.46;101501.53;12244714;19;20022;-77
2022/06/10 00:59:03;;;;;;;1.08;1.08;;;22.00;47.20;;;20.03;51.62;101503.00;12246973;19;20110;-77
2022/06/10 01:03:05;;;;;;;0.98;0.95;;;22.00;47.10;;;19.95;51.61;101516.88;12247826;19;20014;-78
2022/06/10 01:07:09;;;;;;;0.93;0.80;;;21.90;47.20;;;19.89;51.88;101510.28;12238936;19;20022;-78
2022/06/10 01:11:39;;;;;;;1.02;1.02;;;21.80;47.40;;;19.99;51.90;101541.34;12244016;19;20023;-78
2022/06/10 01:16:02;;;;;;;1.27;1.23;;;21.80;47.30;;;19.88;51.67;101540.41;12231149;19;20011;-77
2022/06/10 01:20:59;;;;;;;2.60;1.10;;;21.80;47.30;;;19.84;51.60;101549.56;12247541;19;20475;-78
2022/06/10 01:25:34;;;;;;;1.00;1.00;;;21.70;47.30;;;19.76;51.89;101546.69;12244491;19;20379;-77
2022/06/10 01:30:53;;;;;;;1.63;1.30;;;21.60;47.50;;;19.62;51.86;101544.31;12245499;19;20110;-78
2022/06/10 01:35:15;;;;;;;1.13;1.00;;;21.60;47.50;;;19.64;52.02;101550.34;12238037;19;20112;-77
2022/06/10 01:39:38;;;;;;;1.42;1.15;;;21.70;47.70;;;19.61;52.00;101547.94;12242398;19;20014;-78
2022/06/10 01:43:53;;;;;;;2.15;1.15;;;21.40;47.70;;;19.55;51.94;101551.06;12247046;19;20420;-78
2022/06/10 01:48:16;;;;;;;1.60;1.10;;;21.40;47.70;;;19.45;52.02;101548.31;12240607;19;20031;-78
2022/06/10 01:52:36;;;;;;;1.08;0.98;;;21.40;47.60;;;19.30;51.95;101539.75;12245837;19;20011;-78
2022/06/10 01:56:47;;;;;;;1.02;0.98;;;21.30;47.80;;;19.21;52.43;101549.28;12243776;19;20022;-77
2022/06/10 02:00:55;;;;;;;4.43;1.17;;;21.20;47.80;;;19.23;52.25;101560.59;12243370;19;20021;-78
2022/06/10 02:05:15;;;;;;;1.58;1.05;;;21.10;47.80;;;19.14;52.35;101574.53;12243250;19;20095;-78
2022/06/10 02:09:27;;;;;;;1.40;1.30;;;21.30;48.00;;;19.13;52.50;101570.22;12242447;19;20484;-78
2022/06/10 02:13:43;;;;;;;1.45;1.17;;;21.10;48.10;;;19.08;52.34;101576.84;12245539;19;20002;-78
2022/06/10 02:18:01;;;;;;;1.00;1.00;;;21.00;48.00;;;19.07;52.40;101585.75;12239682;19;20010;-78
2022/06/10 02:22:19;;;;;;;1.60;1.50;;;21.00;48.10;;;18.87;52.70;101571.38;12244621;19;20011;-77
2022/06/10 02:26:23;;;;;;;3.10;1.05;;;20.90;48.20;;;18.91;52.70;101592.22;12239677;19;20038;-78
2022/06/10 02:30:53;;;;;;;2.38;1.15;;;20.90;48.20;;;18.90;52.79;101603.78;12242855;19;20010;-78
2022/06/10 02:34:57;;;;;;;1.48;1.20;;;20.80;48.60;;;18.86;52.66;101620.84;12243275;19;20011;-78
2022/06/10 02:39:36;;;;;;;1.10;0.98;;;20.80;48.20;;;18.67;52.80;101594.88;12239504;19;20007;-78
2022/06/10 02:43:58;;;;;;;1.02;0.93;;;20.70;48.40;;;18.72;52.72;101623.66;12242987;19;20480;-78
2022/06/10 02:48:21;;;;;;;1.13;1.02;;;20.60;48.30;;;18.44;52.86;101591.31;12236557;19;20021;-78
2022/06/10 02:52:29;;;;;;;0.93;0.93;;;20.60;48.50;;;18.58;52.99;101628.19;12243509;19;20014;-78
2022/06/10 02:56:31;;;;;;;0.68;0.65;;;20.50;48.50;;;18.34;53.01;101598.28;12241304;19;20019;-77
2022/06/10 03:01:12;;;;;;;1.05;0.95;;;20.40;48.60;;;18.57;52.91;101633.56;12243336;19;20010;-78
2022/06/10 03:06:02;;;;;;;1.13;1.10;;;20.50;49.10;;;18.50;52.90;101638.50;12239260;19;20385;-78
2022/06/10 03:10:25;;;;;;;1.63;0.93;;;20.40;48.80;;;18.45;52.95;101645.91;12243691;19;20354;-77
2022/06/10 03:14:45;;;;;;;0.90;0.90;;;20.30;48.70;;;18.43;53.15;101655.75;12239455;19;20018;-79
2022/06/10 03:19:46;;;;;;;0.98;0.98;;;20.50;48.90;;;18.37;53.07;101650.94;12241390;19;20010;-78
2022/06/10 03:24:38;;;;;;;1.52;1.08;;;20.20;48.90;;;18.27;53.24;101661.31;12238253;19;20010;-78
2022/06/10 03:28:55;;;;;;;1.30;1.20;;;20.20;49.00;;;18.18;53.16;101661.16;12237432;19;20014;-78
2022/06/10 03:33:21;;;;;;;2.05;1.23;;;20.20;49.20;;;18.20;53.48;101669.81;12238446;19;20028;-77
2022/06/10 03:37:24;;;;;;;1.63;1.05;;;20.10;49.60;;;18.24;53.42;101673.94;12235634;19;20026;-78
2022/06/10 03:41:38;;;;;;;1.52;1.33;;;20.10;49.20;;;18.18;53.43;101674.38;12236265;19;20015;-78
2022/06/10 03:46:01;;;;;;;1.02;1.02;;;20.10;49.30;;;18.14;53.34;101681.66;12235865;19;20010;-78
2022/06/10 03:50:13;;;;;;;1.50;1.40;;;20.10;49.40;;;18.17;53.76;101697.31;12237924;19;20010;-78
2022/06/10 03:54:19;;;;;;;3.20;1.35;;;20.10;49.40;;;18.14;53.40;101703.66;12253519;19;20033;-77
2022/06/10 03:58:21;;;;;;;1.67;1.23;;;20.00;49.40;;;18.05;53.46;101699.03;12245681;19;20026;-78
2022/06/10 04:02:23;;;;;;;1.95;1.38;;;20.10;49.50;;;17.99;53.49;101691.56;12252809;19;20025;-78
2022/06/10 04:06:24;;;;;;;1.40;1.30;;;19.90;49.40;;;17.94;53.74;101693.69;12246890;19;20030;-78
2022/06/10 04:10:28;;;;;;;2.08;1.23;;;20.00;49.50;;;17.99;53.82;101707.41;12253338;19;20010;-78
2022/06/10 04:14:30;;;;;;;1.35;1.25;;;20.00;49.70;;;17.99;53.61;101704.78;12250087;19;20010;-77
2022/06/10 04:18:32;;;;;;;1.52;1.42;;;20.00;49.70;;;18.14;53.61;101727.44;12249518;19;20011;-78
2022/06/10 04:22:35;;;;;;;3.72;1.33;;;20.00;49.80;;;18.05;53.61;101709.63;12247388;19;20029;-78
2022/06/10 04:26:37;;;;;;;5.00;1.90;;;20.00;49.90;;;18.04;53.80;101707.09;12246583;19;20011;-78
2022/06/10 04:30:46;;;;;;;2.53;1.83;;;20.00;49.90;;;18.13;53.85;101720.47;12248853;19;20364;-78
2022/06/10 04:34:48;;;;;;;3.03;1.80;;;20.10;49.90;;;18.23;54.06;101739.19;12242477;19;20139;-78
2022/06/10 04:38:50;;;;;;;3.60;2.15;;;20.40;50.00;;;18.23;53.85;101722.50;12243338;19;20014;-78
2022/06/10 04:42:52;;;;;;;2.58;2.10;;;20.20;50.00;;;18.32;53.96;101738.53;12242950;19;20078;-78
2022/06/10 04:46:54;;;;;;;2.85;2.00;;;20.10;49.90;;;18.21;53.92;101711.16;12240800;19;20010;-78
2022/06/10 04:50:56;;;;;;;2.28;1.92;;;20.20;49.90;;;18.41;53.94;101747.59;12236292;19;20293;-78
2022/06/10 04:54:57;;;;;;;4.47;1.65;;;20.30;49.70;;;18.38;53.83;101734.59;12242504;19;20026;-77
2022/06/10 04:58:59;;;;;;;2.15;1.95;;;20.30;49.80;;;18.55;53.89;101746.59;12244977;19;20025;-77
2022/06/10 05:03:02;;;;;;;2.78;1.55;;;20.40;49.70;;;18.62;53.74;101739.06;12241716;19;20020;-78
2022/06/10 05:07:04;;;;;;;2.25;1.60;;;20.40;49.60;;;18.69;53.75;101740.31;12239898;19;20010;-78
2022/06/10 05:11:07;;;;;;;3.53;1.58;;;20.50;49.60;;;18.81;53.74;101757.97;12241894;19;20472;-78
2022/06/10 05:15:09;;;;;;;1.85;1.25;;;20.60;49.40;;;18.92;53.55;101767.75;12241822;19;20480;-78
2022/06/10 05:19:11;;;;;;;4.25;1.75;;;20.70;49.20;;;18.90;53.53;101759.06;12240774;19;20014;-77
2022/06/10 05:23:18;;;;;;;2.20;1.50;;;20.70;49.00;;;18.90;53.35;101770.53;12241580;19;20038;-78
2022/06/10 05:27:20;;;;;;;1.42;1.33;;;20.80;48.80;;;18.89;53.45;101749.47;12234325;19;20018;-78
2022/06/10 05:31:22;;;;;;;1.63;1.10;;;20.80;48.80;;;19.01;53.35;101756.50;12238953;19;20760;-78
2022/06/10 05:35:24;;;;;;;1.10;1.00;;;20.90;48.90;;;19.10;53.11;101755.81;12239627;19;20035;-78
2022/06/10 05:39:26;;;;;;;1.30;1.13;;;20.90;48.80;;;19.32;53.30;101778.88;12240858;19;20027;-78
2022/06/10 05:43:28;;;;;;;2.95;1.13;;;21.00;48.80;;;19.52;53.32;101781.81;12242591;19;20475;-78
2022/06/10 05:47:33;;;;;;;1.35;1.02;;;21.20;48.90;;;19.68;53.12;101779.69;12235185;19;20487;-78
2022/06/10 05:51:36;;;;;;;2.70;1.30;;;21.30;48.70;;;19.68;52.74;101763.78;12241616;19;20732;-78
2022/06/10 05:55:39;;;;;;;2.85;1.52;;;21.40;48.30;;;19.94;52.97;101784.81;12236268;19;20014;-79
2022/06/10 05:59:41;;;;;;;1.85;1.20;;;21.60;48.30;;;19.92;52.51;101761.06;12242215;19;20048;-78
2022/06/10 06:03:43;;;;;;;1.15;0.88;;;21.70;48.10;;;19.85;52.44;101743.97;12238934;19;20022;-78
2022/06/10 06:07:45;;;;;;;1.65;1.00;;;21.80;47.90;;;20.28;52.25;101793.59;12236878;19;20033;-79
2022/06/10 06:11:50;;;;;;;2.97;0.80;;;21.90;47.60;;;20.39;51.90;101787.44;12239486;19;20006;-78
2022/06/10 06:15:52;;;;;;;1.30;0.82;;;22.00;47.30;;;20.45;52.13;101787.78;12232955;19;20055;-79
2022/06/10 06:19:53;;;;;;;1.40;0.80;;;22.10;47.10;;;20.60;51.66;101785.72;12237808;19;20387;-78
2022/06/10 06:23:55;;;;;;;1.55;0.70;;;22.30;46.90;;;20.78;51.50;101768.31;12235832;19;20018;-79
2022/06/10 06:27:57;;;;;;;1.00;0.90;;;22.60;46.70;;;21.04;51.15;101807.84;12234698;19;20052;-78
2022/06/10 06:31:59;;;;;;;2.60;1.15;;;22.80;46.40;;;21.09;51.38;101810.97;12236114;19;20037;-78
2022/06/10 06:36:01;;;;;;;2.13;0.88;;;22.90;46.00;;;21.20;51.07;101820.69;12229986;19;20023;-78
2022/06/10 06:40:03;;;;;;;2.85;0.93;;;22.80;45.60;;;21.20;50.61;101797.63;12232739;19;20011;-78
2022/06/10 06:44:07;;;;;;;2.03;0.73;;;22.90;45.60;;;21.10;50.54;101771.97;12234030;19;20045;-78
2022/06/10 06:48:10;;;;;;;3.67;1.00;;;23.00;45.20;;;21.18;50.37;101775.66;12228090;19;20015;-78
2022/06/10 06:52:12;;;;;;;3.70;0.93;;;23.10;44.90;;;21.51;50.09;101819.00;12231818;19;20093;-79
2022/06/10 06:56:14;;;;;;;4.28;1.10;;;23.20;44.80;;;21.68;49.96;101830.84;12230999;19;20496;-78
2022/06/10 07:00:27;;;;;;;2.08;0.98;;;23.60;45.10;;;21.75;49.50;101820.56;12233580;19;20028;-78
2022/06/10 07:04:31;;;;;;;5.05;0.90;;;23.40;44.30;;;21.61;49.52;101782.69;12233293;19;20014;-80
2022/06/10 07:08:33;;;;;;;1.52;1.00;;;23.50;44.50;;;21.97;49.66;101820.41;12227894;19;20015;-79
2022/06/10 07:12:34;;;;;;;1.25;1.00;;;23.60;44.50;;;22.08;49.71;101822.97;12229502;19;20018;-79
2022/06/10 07:16:36;;;;;;;1.90;0.90;;;23.70;44.30;;;22.20;49.58;101826.44;12226692;19;20539;-80
2022/06/10 07:20:38;;;;;;;2.25;0.77;;;23.90;43.90;;;22.35;49.24;101829.56;12223969;19;20014;-80
2022/06/10 07:24:41;;;;;;;2.17;1.10;;;23.90;43.90;;;22.27;48.88;101800.09;12227283;19;20098;-79
2022/06/10 07:28:42;;;;;;;3.05;0.95;;;24.00;43.70;;;22.36;48.70;101815.28;12232893;19;20025;-78
2022/06/10 07:32:44;;;;;;;1.95;0.82;;;24.20;43.30;;;22.52;48.54;101828.94;12232121;19;20022;-78
2022/06/10 07:36:47;;;;;;;2.13;0.90;;;24.30;43.20;;;22.65;48.45;101833.16;12231438;19;20462;-78
2022/06/10 07:45:10;;;;;;;0.82;0.77;;;24.40;42.90;;;22.83;48.23;101852.81;12231857;19;20033;-78
2022/06/10 07:49:11;;;;;;;4.10;1.33;;;24.50;42.90;;;22.73;48.01;101835.97;12232125;19;20472;-78
2022/06/10 07:53:15;;;;;;;1.45;0.77;;;24.50;42.50;;;22.90;48.05;101856.63;12234913;19;20496;-79
2022/06/10 07:57:17;;;;;;;1.67;0.80;;;24.60;42.20;;;22.96;48.17;101836.63;12229065;19;20070;-79
2022/06/10 08:01:20;;;;;;;2.40;0.73;;;24.90;42.60;;;23.09;47.58;101831.03;12200833;19;20011;-80
2022/06/10 08:05:21;;;;;;;3.70;0.80;;;24.80;42.40;;;23.34;47.79;101857.09;12213169;19;20023;-79
2022/06/10 08:09:23;;;;;;;2.38;0.88;;;24.90;42.10;;;23.31;47.58;101832.56;12221489;19;20022;-79
2022/06/10 08:13:26;;;;;;;2.65;0.90;;;25.00;42.10;;;23.35;47.23;101820.63;12214965;19;20022;-79
2022/06/10 08:17:28;;;;;;;2.65;1.02;;;25.10;41.90;;;23.36;47.22;101817.81;12213229;19;20499;-79
2022/06/10 08:22:32;;;;;;;3.30;0.80;;;25.20;42.00;;;23.65;46.88;101838.25;12218689;19;20092;-79
2022/06/10 08:25:54;;;;;;;2.42;0.82;;;25.30;41.60;;;23.74;46.61;101825.94;12214982;19;20006;-78
2022/06/10 08:29:57;;;;;;;3.13;1.98;;;25.40;41.80;;;24.00;46.50;101851.00;12215203;19;20049;-79
2022/06/10 08:33:58;;;;;;;0.85;0.68;;;25.50;41.30;;;24.13;46.13;101860.53;12217499;19;20015;-78
2022/06/10 08:38:03;;;;;;;2.85;1.10;;;25.70;40.80;;;24.19;46.14;101843.91;12223586;19;20363;-78
2022/06/10 08:42:24;;;;;;;2.10;0.80;;;25.80;41.30;;;24.33;46.07;101855.94;12229218;19;20361;-79
2022/06/10 08:46:59;;;;;;;2.78;1.08;;;26.10;40.90;;;24.45;45.79;101860.13;12228510;19;20022;-79
2022/06/10 08:51:30;;;;;;;1.67;0.95;;;26.00;40.40;;;24.47;45.35;101852.84;12228963;19;20026;-79
2022/06/10 08:55:52;;;;;;;1.77;0.85;;;26.10;40.40;;;24.42;45.38;101841.72;12227927;19;20018;-79
2022/06/10 08:59:57;;;;;;;2.70;1.50;;;26.20;40.10;;;24.29;45.24;101816.19;12228911;19;20011;-79
2022/06/10 09:04:28;;;;;;;2.53;0.80;;;26.20;40.10;;;24.61;44.70;101857.66;12225686;19;20496;-78
2022/06/10 09:08:46;;;;;;;1.95;0.90;;;26.20;39.90;;;24.64;44.93;101865.38;12228306;19;20482;-78
2022/06/10 09:13:20;;;;;;;3.65;1.10;;;26.30;40.20;;;24.68;44.90;101853.41;12230848;19;20086;-79
2022/06/10 09:17:39;;;;;;;3.22;1.20;;;26.40;40.00;;;24.79;44.98;101863.06;12224789;19;20022;-79
2022/06/10 09:22:11;;;;;;;3.20;0.70;;;26.40;40.00;;;24.82;45.14;101841.38;12227270;19;20532;-79
2022/06/10 09:26:30;;;;;;;2.80;0.88;;;26.50;40.40;;;25.01;44.90;101860.94;12225459;19;20022;-79
2022/06/10 09:30:50;;;;;;;4.38;1.05;;;26.60;40.20;;;25.00;44.73;101854.75;12227463;19;20353;-78
2022/06/10 09:35:24;;;;;;;1.30;0.70;;;26.70;39.80;;;25.13;43.99;101860.56;12226481;19;20026;-79
2022/06/10 09:44:52;;;;;;;3.25;0.95;;;26.90;39.40;;;25.38;43.77;101860.81;12226693;19;20047;-78
2022/06/10 09:49:26;;;;;;;2.88;0.80;;;27.00;39.20;;;25.48;43.13;101877.63;12218087;19;20476;-79
2022/06/10 09:54:04;;;;;;;3.13;0.80;;;27.00;39.00;;;25.46;43.43;101858.19;12226956;19;20015;-79
2022/06/10 09:59:03;;;;;;;3.30;0.90;;;27.10;38.60;;;25.51;43.50;101871.94;12221866;19;20014;-79
2022/06/10 10:03:41;;;;;;;2.55;0.60;;;27.10;38.60;;;25.60;43.35;101860.34;12217526;19;20043;-78
2022/06/10 10:07:51;;;;;;;1.77;0.80;;;27.20;38.30;;;25.60;42.77;101849.63;12216629;19;20026;-78
2022/06/10 10:12:06;;;;;;;0.98;0.77;;;27.20;38.80;;;25.70;43.07;101851.38;12223379;19;20789;-78
2022/06/10 10:16:50;;;;;;;1.77;0.80;;;27.30;38.30;;;25.78;42.59;101843.38;12220489;19;20411;-78
2022/06/10 10:21:09;;;;;;;3.88;1.00;;;27.40;38.50;;;25.71;42.23;101848.53;12225416;19;20471;-78
2022/06/10 10:25:22;;;;;;;1.10;1.00;;;27.40;38.00;;;25.69;42.25;101839.00;12223729;19;20018;-79
2022/06/10 10:29:33;;;;;;;2.20;0.90;;;27.40;37.70;;;25.74;42.44;101842.88;12223234;19;20038;-79
2022/06/10 10:33:35;;;;;;;1.10;0.70;;;27.40;37.90;;;25.80;42.03;101838.72;12223364;19;20035;-79
2022/06/10 10:37:37;;;;;;;4.28;0.85;;;27.40;37.70;;;25.87;41.91;101847.84;12220490;19;20480;-79
2022/06/10 10:41:44;;;;;;;1.58;0.80;;;27.50;37.80;;;25.85;41.73;101833.78;12225605;19;20356;-80
2022/06/10 10:46:06;;;;;;;1.08;0.70;;;27.50;37.40;;;25.90;41.42;101825.28;12219119;19;20018;-79
2022/06/10 10:50:37;;;;;;;2.53;0.93;;;27.60;37.60;;;25.96;41.37;101812.09;12226112;19;20042;-78
2022/06/10 10:54:47;;;;;;;1.35;0.63;;;27.70;37.50;;;26.06;41.29;101817.34;12219937;19;20485;-79
2022/06/10 10:58:53;;;;;;;2.45;0.65;;;27.70;37.10;;;26.11;41.11;101832.91;12218621;19;20018;-79
2022/06/10 11:02:58;;;;;;;1.95;0.98;;;27.80;37.20;;;26.02;41.27;101802.56;12217615;19;20006;-78
2022/06/10 11:07:18;;;;;;;2.30;0.70;;;27.70;36.70;;;26.19;41.23;101827.59;12219204;19;20370;-77
2022/06/10 11:11:25;;;;;;;3.25;0.90;;;27.80;37.20;;;26.27;40.87;101831.16;12215986;19;20018;-78
2022/06/10 11:15:30;;;;;;;1.63;0.90;;;27.80;36.20;;;26.33;40.62;101826.13;12218084;19;20868;-77
2022/06/10 11:19:32;;;;;;;2.05;0.68;;;27.90;36.40;;;26.37;40.64;101835.53;12217392;19;20014;-78
2022/06/10 11:23:33;;;;;;;1.38;0.60;;;27.90;36.40;;;26.34;40.61;101817.94;12220535;19;20083;-79
2022/06/10 11:27:39;;;;;;;2.95;0.70;;;27.90;36.30;;;26.21;39.72;101802.31;12213723;19;20523;-77
2022/06/10 11:31:57;;;;;;;1.42;0.65;;;28.00;36.00;;;26.37;39.88;101808.75;12219249;19;20026;-77
2022/06/10 11:36:13;;;;;;;2.35;0.80;;;28.00;36.00;;;26.54;39.87;101817.72;12219913;19;20038;-76
2022/06/10 11:40:20;;;;;;;;;;;28.10;36.00;;;26.61;40.98;101808.84;12217749;19;20102;-77
2022/06/10 11:44:24;;;;;;;1.27;0.68;;;28.20;37.50;;;26.77;40.42;101813.41;12218073;19;19932;-77
2022/06/10 11:49:26;;;;;;;1.52;0.80;;;28.30;36.40;;;26.86;40.01;101799.00;12215358;19;20014;-77
2022/06/10 11:53:46;;;;;;;2.65;0.65;;;28.40;36.40;;;27.00;39.45;101802.06;12215180;19;20010;-77
2022/06/10 12:03:13;;;;;;;0.90;0.63;;;28.60;35.70;;;27.08;38.91;101802.88;12218913;19;20011;-77
2022/06/10 12:07:20;;;;;;;2.78;0.85;;;28.60;35.60;;;27.07;38.82;101793.19;12215905;19;20011;-77
2022/06/10 12:11:32;;;;;;;2.35;0.77;;;28.70;35.40;;;27.11;38.84;101809.75;12221995;19;20014;-77
2022/06/10 12:15:38;;;;;;;1.35;0.88;;;28.70;35.10;;;27.06;39.13;101783.47;12225081;19;20094;-77
2022/06/10 12:20:02;;;;;;;1.67;0.80;;;28.80;35.70;;;27.10;38.44;101779.44;12229202;19;20014;-77
2022/06/10 12:24:13;;;;;;;;;;;28.80;35.20;;;27.25;39.54;101790.38;12231196;19;20382;-77
2022/06/10 12:28:40;;;;;;;0.65;0.65;;;28.80;36.70;;;27.29;38.70;101778.28;12223003;19;20352;-77
2022/06/10 12:33:02;;;;;;;2.63;0.77;;;28.90;35.60;;;27.38;37.74;101783.63;12228925;19;20014;-77
2022/06/10 12:37:34;;;;;;;4.40;1.20;;;28.90;34.70;;;27.34;37.78;101773.25;12223933;19;20042;-77
2022/06/10 12:41:47;;;;;;;3.08;0.70;;;28.90;34.50;;;27.38;37.71;101772.91;12226398;19;20018;-78
2022/06/10 12:46:14;;;;;;;1.83;0.73;;;28.90;34.60;;;27.42;37.79;101766.22;12221312;19;20022;-78
2022/06/10 12:50:46;;;;;;;1.55;0.80;;;28.90;34.40;;;27.55;37.75;101766.53;12228301;19;20010;-77
2022/06/10 12:55:17;;;;;;;1.13;0.63;;;29.00;35.00;;;27.69;37.66;101771.16;12229468;19;20022;-77
2022/06/10 12:59:24;;;;;;;1.48;0.75;;;29.10;34.70;;;27.70;37.13;101755.91;12241346;19;20022;-77
2022/06/10 13:03:33;;;;;;;2.17;0.80;;;29.20;33.90;;;27.73;37.23;101768.97;12240197;19;20018;-78
2022/06/10 13:07:38;;;;;;;2.33;0.65;;;29.30;34.10;;;27.71;36.65;101765.66;12236444;19;20018;-77
2022/06/10 13:11:48;;;;;;;2.08;0.60;;;29.50;33.70;;;27.90;36.78;101777.88;12236331;19;20645;-78
2022/06/10 13:15:56;;;;;;;1.08;0.80;;;29.30;34.00;;;27.78;36.36;101745.97;12237777;19;20034;-77
2022/06/10 13:19:58;;;;;;;2.65;0.70;;;29.40;33.60;;;27.97;36.86;101774.28;12239409;19;20388;-77
2022/06/10 13:23:59;;;;;;;0.57;0.57;;;29.40;33.40;;;28.04;36.26;101769.06;12239307;19;20018;-77
2022/06/10 13:28:01;;;;;;;1.83;0.70;;;29.50;33.30;;;28.08;36.29;101772.25;12234725;19;20050;-77
2022/06/10 13:32:09;;;;;;;1.70;0.73;;;29.60;33.40;;;27.98;35.93;101743.75;12241370;19;20026;-78
2022/06/10 13:36:12;;;;;;;1.20;0.60;;;29.60;33.50;;;28.07;36.00;101747.25;12236087;19;20014;-77
2022/06/10 13:40:24;;;;;;;2.97;0.75;;;29.60;33.40;;;28.17;35.69;101742.50;12241381;19;20022;-78
2022/06/10 13:44:46;;;;;;;1.77;1.00;;;29.70;33.00;;;28.12;35.75;101728.75;12240755;19;20357;-77
2022/06/10 13:48:48;;;;;;;3.20;0.80;;;29.70;33.30;;;28.35;36.10;101752.13;12237907;19;20011;-78
2022/06/10 13:53:05;;;;;;;0.77;0.50;;;29.80;33.50;;;28.45;35.30;101758.16;12241204;19;20488;-78
2022/06/10 13:57:29;;;;;;;1.08;0.68;;;29.90;33.40;;;28.43;34.70;101738.66;12235103;19;20011;-77
2022/06/10 14:01:39;;;;;;;1.38;0.63;;;29.90;32.70;;;28.18;35.05;101695.81;12238610;19;20014;-77
2022/06/10 14:05:42;;;;;;;3.03;0.70;;;29.90;32.60;;;28.14;34.62;101690.94;12234915;19;20025;-78
2022/06/10 14:09:46;;;;;;;1.42;0.70;;;29.90;32.10;;;28.48;34.59;101740.84;12239689;19;20011;-77
2022/06/10 14:14:02;;;;;;;1.85;0.77;;;30.00;32.10;;;28.52;34.24;101740.31;12237288;19;20015;-78
2022/06/10 14:18:17;;;;;;;1.42;0.80;;;30.10;32.10;;;28.43;33.79;101727.91;12235656;19;20037;-78
2022/06/10 14:22:25;;;;;;;;;;;30.00;31.80;;;28.37;35.33;101699.06;12239289;19;20039;-77
2022/06/10 14:26:27;;;;;;;0.30;0.30;;;30.10;33.70;;;28.46;34.52;101716.81;12236912;19;19926;-77
2022/06/10 14:30:37;;;;;;;2.67;0.77;;;30.10;32.00;;;28.61;34.05;101739.22;12239221;19;20015;-78
2022/06/10 14:34:44;;;;;;;2.10;1.02;;;30.10;32.00;;;28.47;33.92;101715.00;12236677;19;20023;-77
2022/06/10 14:39:23;;;;;;;1.58;0.50;;;30.10;31.90;;;28.48;34.11;101706.72;12235067;19;20091;-77
2022/06/10 14:43:32;;;;;;;2.08;0.50;;;30.10;32.40;;;28.51;33.84;101722.50;12239019;19;20048;-77
2022/06/10 14:47:35;;;;;;;4.60;0.75;;;30.10;31.50;;;28.58;33.61;101726.16;12232426;19;20495;-78
2022/06/10 14:51:40;;;;;;;1.10;0.68;;;30.10;31.70;;;28.44;33.67;101711.63;12238887;19;20018;-78
2022/06/10 14:55:46;;;;;;;3.10;0.85;;;30.10;31.70;;;28.36;33.23;101702.75;12234235;19;20039;-78
2022/06/10 14:59:48;;;;;;;1.45;0.70;;;30.10;31.30;;;28.50;33.10;101717.31;12234793;19;20031;-77
2022/06/10 15:03:51;;;;;;;1.02;0.85;;;30.00;31.20;;;28.47;33.18;101715.00;12233853;19;20027;-78
2022/06/10 15:07:52;;;;;;;4.22;1.20;;;30.00;31.10;;;28.20;33.56;101666.91;12232166;19;20010;-78
2022/06/10 15:11:56;;;;;;;3.05;0.80;;;30.10;31.60;;;28.46;33.00;101708.75;12236293;19;20479;-77
2022/06/10 15:15:58;;;;;;;1.08;0.50;;;30.00;31.20;;;28.56;32.84;101708.53;12233999;19;20010;-77
2022/06/10 15:19:59;;;;;;;1.08;0.70;;;30.00;31.30;;;28.58;32.68;101709.19;12233253;19;20038;-78
2022/06/10 15:24:02;;;;;;;0.90;0.57;;;30.00;30.90;;;28.64;32.55;101709.28;12237339;19;20490;-77
2022/06/10 15:28:03;;;;;;;1.05;0.80;;;30.10;30.90;;;28.62;32.72;101703.25;12230641;19;20042;-77
2022/06/10 15:32:12;;;;;;;1.52;0.57;;;30.10;30.80;;;28.63;32.34;101696.06;12234836;19;20019;-78
2022/06/10 15:40:46;;;;;;;2.33;0.60;;;30.10;30.80;;;28.62;32.60;101686.28;12234004;19;20014;-77
2022/06/10 15:44:47;;;;;;;2.75;0.70;;;30.10;30.90;;;28.77;32.18;101705.19;12233222;19;20524;-78
2022/06/10 15:48:51;;;;;;;0.98;0.68;;;30.10;30.70;;;28.67;31.50;101683.91;12242305;19;20097;-78
2022/06/10 15:52:54;;;;;;;1.38;1.02;;;30.30;30.60;;;28.74;31.81;101700.16;12245756;19;20045;-77
2022/06/10 15:57:10;;;;;;;0.82;0.70;;;30.20;30.30;;;28.72;31.50;101696.81;12239783;19;20362;-77
2022/06/10 16:01:13;;;;;;;1.02;0.80;;;30.10;30.20;;;28.63;31.68;101677.22;12248769;19;20368;-78
2022/06/10 16:05:23;;;;;;;1.65;0.95;;;30.10;30.20;;;28.71;31.31;101690.59;12247119;19;20021;-78
2022/06/10 16:09:24;;;;;;;0.50;0.50;;;30.10;30.40;;;28.69;31.45;101687.25;12250492;19;20364;-78
2022/06/10 16:13:37;;;;;;;1.75;0.75;;;30.10;30.20;;;28.66;31.72;101682.25;12251514;19;20052;-77
2022/06/10 16:17:39;;;;;;;1.80;1.00;;;30.10;30.50;;;28.66;31.48;101675.00;12244290;19;20329;-78
2022/06/10 16:21:41;;;;;;;1.05;0.55;;;30.10;30.50;;;28.74;31.36;101700.16;12248941;19;20010;-77
2022/06/10 16:25:49;;;;;;;6.47;2.05;;;30.20;30.30;;;28.66;31.13;101693.00;12244327;19;20456;-77
2022/06/10 16:29:56;;;;;;;3.40;1.17;;;30.10;30.20;;;28.49;31.27;101670.78;12249090;19;20022;-77
2022/06/10 16:33:58;;;;;;;0.88;0.70;;;30.10;30.30;;;28.50;31.30;101687.75;12247527;19;20360;-78
2022/06/10 16:38:01;;;;;;;5.95;2.28;;;30.20;30.40;;;28.34;31.50;101661.78;12245213;19;20022;-77
2022/06/10 16:42:03;;;;;;;2.53;1.40;;;30.00;30.50;;;28.42;30.97;101688.59;12248379;19;20048;-77
2022/06/10 16:46:17;;;;;;;1.80;0.75;;;29.90;30.20;;;28.36;31.19;101698.22;12246640;19;20022;-77
2022/06/10 16:50:22;;;;;;;2.65;0.80;;;29.90;30.20;;;28.24;31.43;101678.97;12248719;19;20379;-77
2022/06/10 16:54:25;;;;;;;4.43;1.02;;;29.80;30.50;;;28.15;31.36;101671.16;12250507;19;20029;-78
2022/06/10 16:58:36;;;;;;;1.13;0.60;;;29.80;30.30;;;28.18;31.38;101673.47;12240906;19;20014;-78
2022/06/10 17:02:50;;;;;;;3.45;1.60;;;29.70;30.20;;;27.94;31.33;101656.50;12247921;19;20067;-77
2022/06/10 17:06:53;;;;;;;3.42;2.35;;;29.90;30.60;;;28.05;31.24;101690.16;12244909;19;20466;-78
2022/06/10 17:11:00;;;;;;;1.55;1.10;;;29.60;30.50;;;27.84;31.51;101663.09;12247508;19;20018;-78
2022/06/10 17:15:24;;;;;;;3.08;0.90;;;29.50;30.40;;;27.83;31.28;101680.22;12246927;19;20090;-78
2022/06/10 17:19:26;;;;;;;1.92;0.93;;;29.40;30.40;;;27.63;31.54;101661.00;12245299;19;20086;-77
2022/06/10 17:23:28;;;;;;;3.58;0.90;;;29.40;30.70;;;27.61;31.53;101669.22;12248638;19;20029;-78
2022/06/10 17:27:37;;;;;;;1.30;0.52;;;29.30;30.60;;;27.53;31.54;101674.59;12242176;19;20018;-77
2022/06/10 17:31:38;;;;;;;1.60;0.80;;;29.20;30.50;;;27.30;31.27;101639.63;12244706;19;20352;-78
2022/06/10 17:35:40;;;;;;;1.40;0.70;;;29.10;30.80;;;27.42;31.72;101677.66;12242005;19;20018;-78